KCDR

Chadron Municipal Airport

Chadron, Nebraska, USA
METAR KCDR 210653Z AUTO 00000KT 10SM CLR 06/04 A3005 RMK AO2 SLP182 T00610039 401670017
Observed Flight Rules
May-21 @ 06:53 UTC (23 minutes ago) Visual Flight Rules
Visibility Clouds
10 miles
  • Clear skies
Temperatures Readings
Current 6°C / 43°F
Dewpoint 4°C / 39°F
Humidity 87%
Altimeter 30.05" Hg
Pressure 1018.2 hPa
Elevation 1010
METAR KCDR 210653Z AUTO 00000KT 10SM CLR 06/04 A3005 RMK AO2 SLP182 T00610039 401670017
Observed Flight Rules
May-21 @ 06:53 UTC
(23 minutes ago)
VFR
Clouds
  • Clear skies
Temperature Dewpoint
6°C / 43°F 4°C / 39°F
Humidity Altimeter Pressure
87% 30.05" Hg 1018.2 hPa